sensor_id;sensor_type;location;lat;lon;timestamp;temperature;humidity
39453;DHT22;25154;-33.684;151.102;2023-08-12T00:00:40;15.00;99.90
39453;DHT22;25154;-33.684;151.102;2023-08-12T00:05:45;15.40;99.90
39453;DHT22;25154;-33.684;151.102;2023-08-12T00:10:48;15.30;99.90
39453;DHT22;25154;-33.684;151.102;2023-08-12T00:15:51;15.60;99.90
39453;DHT22;25154;-33.684;151.102;2023-08-12T00:20:53;15.90;99.80
39453;DHT22;25154;-33.684;151.102;2023-08-12T00:25:58;16.00;99.00
39453;DHT22;25154;-33.684;151.102;2023-08-12T00:31:00;16.30;99.30
39453;DHT22;25154;-33.684;151.102;2023-08-12T00:36:03;16.80;95.90
39453;DHT22;25154;-33.684;151.102;2023-08-12T00:41:05;16.80;94.60
39453;DHT22;25154;-33.684;151.102;2023-08-12T00:46:08;16.70;96.10
39453;DHT22;25154;-33.684;151.102;2023-08-12T00:51:10;16.70;94.30
39453;DHT22;25154;-33.684;151.102;2023-08-12T00:56:13;17.00;94.00
39453;DHT22;25154;-33.684;151.102;2023-08-12T01:01:15;17.20;94.50
39453;DHT22;25154;-33.684;151.102;2023-08-12T01:06:19;17.40;92.80
39453;DHT22;25154;-33.684;151.102;2023-08-12T01:16:39;17.50;90.70
39453;DHT22;25154;-33.684;151.102;2023-08-12T01:21:44;17.80;90.50
39453;DHT22;25154;-33.684;151.102;2023-08-12T01:26:48;17.60;89.50
39453;DHT22;25154;-33.684;151.102;2023-08-12T01:37:24;17.90;88.70
39453;DHT22;25154;-33.684;151.102;2023-08-12T01:42:28;18.60;88.70
39453;DHT22;25154;-33.684;151.102;2023-08-12T01:47:32;18.60;85.20
39453;DHT22;25154;-33.684;151.102;2023-08-12T01:52:35;18.60;85.50
39453;DHT22;25154;-33.684;151.102;2023-08-12T01:57:37;18.70;82.80
39453;DHT22;25154;-33.684;151.102;2023-08-12T02:02:41;18.90;81.70
39453;DHT22;25154;-33.684;151.102;2023-08-12T02:07:47;19.10;81.10
39453;DHT22;25154;-33.684;151.102;2023-08-12T02:12:50;19.70;82.20
39453;DHT22;25154;-33.684;151.102;2023-08-12T02:17:53;19.70;79.70
39453;DHT22;25154;-33.684;151.102;2023-08-12T02:22:55;19.60;79.40
39453;DHT22;25154;-33.684;151.102;2023-08-12T02:27:58;19.70;80.80
39453;DHT22;25154;-33.684;151.102;2023-08-12T02:33:01;19.70;80.30
39453;DHT22;25154;-33.684;151.102;2023-08-12T02:38:04;20.30;78.50
39453;DHT22;25154;-33.684;151.102;2023-08-12T02:43:06;20.20;78.40
39453;DHT22;25154;-33.684;151.102;2023-08-12T02:48:12;20.20;78.30
39453;DHT22;25154;-33.684;151.102;2023-08-12T02:53:16;20.60;78.00
39453;DHT22;25154;-33.684;151.102;2023-08-12T02:58:19;20.90;77.50
39453;DHT22;25154;-33.684;151.102;2023-08-12T03:03:22;20.60;78.00
39453;DHT22;25154;-33.684;151.102;2023-08-12T03:08:24;20.90;77.50
39453;DHT22;25154;-33.684;151.102;2023-08-12T03:13:28;21.20;76.30
39453;DHT22;25154;-33.684;151.102;2023-08-12T03:18:31;21.20;75.80
39453;DHT22;25154;-33.684;151.102;2023-08-12T03:23:35;21.30;75.10
39453;DHT22;25154;-33.684;151.102;2023-08-12T03:28:38;21.60;76.00
39453;DHT22;25154;-33.684;151.102;2023-08-12T03:33:41;22.50;74.60
39453;DHT22;25154;-33.684;151.102;2023-08-12T03:38:43;21.80;73.20
39453;DHT22;25154;-33.684;151.102;2023-08-12T03:43:46;21.80;74.30
39453;DHT22;25154;-33.684;151.102;2023-08-12T03:48:49;22.40;73.80
39453;DHT22;25154;-33.684;151.102;2023-08-12T03:53:52;22.30;71.20
39453;DHT22;25154;-33.684;151.102;2023-08-12T03:58:54;22.30;71.60
39453;DHT22;25154;-33.684;151.102;2023-08-12T04:03:57;22.80;70.60
39453;DHT22;25154;-33.684;151.102;2023-08-12T04:09:00;26.00;65.10
39453;DHT22;25154;-33.684;151.102;2023-08-12T04:14:02;26.70;61.80
39453;DHT22;25154;-33.684;151.102;2023-08-12T04:19:05;26.10;62.20
39453;DHT22;25154;-33.684;151.102;2023-08-12T04:24:08;24.00;64.60
39453;DHT22;25154;-33.684;151.102;2023-08-12T04:29:11;21.70;68.60
39453;DHT22;25154;-33.684;151.102;2023-08-12T04:34:14;22.30;67.80
39453;DHT22;25154;-33.684;151.102;2023-08-12T04:39:16;23.80;66.30
39453;DHT22;25154;-33.684;151.102;2023-08-12T04:44:19;24.20;62.60
39453;DHT22;25154;-33.684;151.102;2023-08-12T04:49:22;22.10;67.10
39453;DHT22;25154;-33.684;151.102;2023-08-12T04:54:25;22.70;66.20
39453;DHT22;25154;-33.684;151.102;2023-08-12T04:59:28;25.20;59.70
39453;DHT22;25154;-33.684;151.102;2023-08-12T05:04:31;24.70;60.70
39453;DHT22;25154;-33.684;151.102;2023-08-12T05:09:33;21.90;64.60
39453;DHT22;25154;-33.684;151.102;2023-08-12T05:14:36;22.00;66.70
39453;DHT22;25154;-33.684;151.102;2023-08-12T05:19:39;21.30;67.10
39453;DHT22;25154;-33.684;151.102;2023-08-12T05:24:42;21.30;66.50
39453;DHT22;25154;-33.684;151.102;2023-08-12T05:29:45;27.70;59.40
39453;DHT22;25154;-33.684;151.102;2023-08-12T05:34:52;31.00;54.90
39453;DHT22;25154;-33.684;151.102;2023-08-12T05:39:55;30.30;54.50
39453;DHT22;25154;-33.684;151.102;2023-08-12T05:44:57;26.40;58.50
39453;DHT22;25154;-33.684;151.102;2023-08-12T05:50:00;23.90;62.80
39453;DHT22;25154;-33.684;151.102;2023-08-12T05:55:03;30.60;56.10
39453;DHT22;25154;-33.684;151.102;2023-08-12T06:00:07;30.10;55.20
39453;DHT22;25154;-33.684;151.102;2023-08-12T06:05:09;27.30;58.50
39453;DHT22;25154;-33.684;151.102;2023-08-12T06:10:12;22.20;68.20
39453;DHT22;25154;-33.684;151.102;2023-08-12T06:15:15;20.90;68.00
39453;DHT22;25154;-33.684;151.102;2023-08-12T06:20:17;20.80;73.30
39453;DHT22;25154;-33.684;151.102;2023-08-12T06:25:20;20.70;69.10
39453;DHT22;25154;-33.684;151.102;2023-08-12T06:30:23;20.00;71.30
39453;DHT22;25154;-33.684;151.102;2023-08-12T06:35:26;19.60;72.50
39453;DHT22;25154;-33.684;151.102;2023-08-12T06:40:33;19.20;73.70
39453;DHT22;25154;-33.684;151.102;2023-08-12T06:45:36;18.50;78.30
39453;DHT22;25154;-33.684;151.102;2023-08-12T06:50:39;18.30;79.90
39453;DHT22;25154;-33.684;151.102;2023-08-12T06:55:45;18.00;81.60
39453;DHT22;25154;-33.684;151.102;2023-08-12T07:00:47;17.70;83.30
39453;DHT22;25154;-33.684;151.102;2023-08-12T07:05:50;17.30;88.30
39453;DHT22;25154;-33.684;151.102;2023-08-12T07:10:53;17.20;88.80
39453;DHT22;25154;-33.684;151.102;2023-08-12T07:15:56;17.00;91.70
39453;DHT22;25154;-33.684;151.102;2023-08-12T07:20:58;16.60;93.80
39453;DHT22;25154;-33.684;151.102;2023-08-12T07:26:01;16.50;95.70
39453;DHT22;25154;-33.684;151.102;2023-08-12T07:31:05;16.40;95.60
39453;DHT22;25154;-33.684;151.102;2023-08-12T07:36:07;16.20;97.90
39453;DHT22;25154;-33.684;151.102;2023-08-12T07:41:09;16.00;99.90
39453;DHT22;25154;-33.684;151.102;2023-08-12T07:46:12;16.00;99.90
39453;DHT22;25154;-33.684;151.102;2023-08-12T07:51:15;15.80;99.90
39453;DHT22;25154;-33.684;151.102;2023-08-12T07:56:17;15.70;99.90
39453;DHT22;25154;-33.684;151.102;2023-08-12T08:01:20;15.50;99.90
39453;DHT22;25154;-33.684;151.102;2023-08-12T08:06:23;15.30;99.90
39453;DHT22;25154;-33.684;151.102;2023-08-12T08:11:26;15.30;99.90
39453;DHT22;25154;-33.684;151.102;2023-08-12T08:16:28;15.20;99.90
39453;DHT22;25154;-33.684;151.102;2023-08-12T08:21:30;15.20;99.90
39453;DHT22;25154;-33.684;151.102;2023-08-12T08:26:33;15.10;99.90
39453;DHT22;25154;-33.684;151.102;2023-08-12T08:31:35;15.00;99.90
39453;DHT22;25154;-33.684;151.102;2023-08-12T08:36:38;14.90;99.90
39453;DHT22;25154;-33.684;151.102;2023-08-12T08:41:41;14.80;99.90
39453;DHT22;25154;-33.684;151.102;2023-08-12T08:46:44;14.70;99.90
39453;DHT22;25154;-33.684;151.102;2023-08-12T08:51:50;14.60;99.90
39453;DHT22;25154;-33.684;151.102;2023-08-12T08:56:53;14.50;99.90
39453;DHT22;25154;-33.684;151.102;2023-08-12T09:01:56;14.40;99.90
39453;DHT22;25154;-33.684;151.102;2023-08-12T09:07:00;14.50;99.90
39453;DHT22;25154;-33.684;151.102;2023-08-12T09:12:03;14.40;99.90
39453;DHT22;25154;-33.684;151.102;2023-08-12T09:17:07;14.30;99.90
39453;DHT22;25154;-33.684;151.102;2023-08-12T09:22:11;14.30;99.90
39453;DHT22;25154;-33.684;151.102;2023-08-12T09:27:18;14.30;99.90
39453;DHT22;25154;-33.684;151.102;2023-08-12T09:32:20;14.00;99.90
39453;DHT22;25154;-33.684;151.102;2023-08-12T09:37:25;13.90;99.90
39453;DHT22;25154;-33.684;151.102;2023-08-12T09:42:28;13.90;99.90
39453;DHT22;25154;-33.684;151.102;2023-08-12T09:47:31;13.60;99.90
39453;DHT22;25154;-33.684;151.102;2023-08-12T09:52:36;13.40;99.90
39453;DHT22;25154;-33.684;151.102;2023-08-12T09:57:43;13.30;99.90
39453;DHT22;25154;-33.684;151.102;2023-08-12T10:02:47;13.20;99.90
39453;DHT22;25154;-33.684;151.102;2023-08-12T10:07:50;13.00;99.90
39453;DHT22;25154;-33.684;151.102;2023-08-12T10:12:52;13.10;99.90
39453;DHT22;25154;-33.684;151.102;2023-08-12T10:17:56;13.10;99.90
39453;DHT22;25154;-33.684;151.102;2023-08-12T10:23:00;12.80;99.90
39453;DHT22;25154;-33.684;151.102;2023-08-12T10:28:03;12.50;99.90
39453;DHT22;25154;-33.684;151.102;2023-08-12T10:33:06;12.70;99.90
39453;DHT22;25154;-33.684;151.102;2023-08-12T10:38:08;12.60;99.90
39453;DHT22;25154;-33.684;151.102;2023-08-12T10:43:12;12.60;99.90
39453;DHT22;25154;-33.684;151.102;2023-08-12T10:48:23;12.30;99.90
39453;DHT22;25154;-33.684;151.102;2023-08-12T10:53:27;12.10;99.90
39453;DHT22;25154;-33.684;151.102;2023-08-12T10:58:47;11.80;99.90
39453;DHT22;25154;-33.684;151.102;2023-08-12T11:03:49;11.80;99.90
39453;DHT22;25154;-33.684;151.102;2023-08-12T11:08:56;11.80;99.90
39453;DHT22;25154;-33.684;151.102;2023-08-12T11:13:59;11.80;99.90
39453;DHT22;25154;-33.684;151.102;2023-08-12T11:19:02;11.70;99.90
39453;DHT22;25154;-33.684;151.102;2023-08-12T11:24:05;11.80;99.90
39453;DHT22;25154;-33.684;151.102;2023-08-12T11:29:11;11.40;99.90
39453;DHT22;25154;-33.684;151.102;2023-08-12T11:34:14;11.40;99.90
39453;DHT22;25154;-33.684;151.102;2023-08-12T11:39:18;11.20;99.90
39453;DHT22;25154;-33.684;151.102;2023-08-12T11:44:23;11.10;99.90
39453;DHT22;25154;-33.684;151.102;2023-08-12T11:49:26;11.00;99.90
39453;DHT22;25154;-33.684;151.102;2023-08-12T11:54:28;10.60;99.90
39453;DHT22;25154;-33.684;151.102;2023-08-12T11:59:31;10.50;99.90
39453;DHT22;25154;-33.684;151.102;2023-08-12T12:04:33;10.50;99.90
39453;DHT22;25154;-33.684;151.102;2023-08-12T12:09:36;10.60;99.90
39453;DHT22;25154;-33.684;151.102;2023-08-12T12:14:38;10.70;99.90
39453;DHT22;25154;-33.684;151.102;2023-08-12T12:19:41;10.40;99.90
39453;DHT22;25154;-33.684;151.102;2023-08-12T12:24:47;10.40;99.90
39453;DHT22;25154;-33.684;151.102;2023-08-12T12:29:49;10.60;99.90
39453;DHT22;25154;-33.684;151.102;2023-08-12T12:34:52;10.50;99.90
39453;DHT22;25154;-33.684;151.102;2023-08-12T12:39:56;10.30;99.90
39453;DHT22;25154;-33.684;151.102;2023-08-12T12:44:58;10.30;99.90
39453;DHT22;25154;-33.684;151.102;2023-08-12T12:50:01;10.00;99.90
39453;DHT22;25154;-33.684;151.102;2023-08-12T12:55:03;10.10;99.90
39453;DHT22;25154;-33.684;151.102;2023-08-12T13:00:06;10.20;99.90
39453;DHT22;25154;-33.684;151.102;2023-08-12T13:05:13;10.30;99.90
39453;DHT22;25154;-33.684;151.102;2023-08-12T13:10:15;10.20;99.90
39453;DHT22;25154;-33.684;151.102;2023-08-12T13:15:17;10.30;99.90
39453;DHT22;25154;-33.684;151.102;2023-08-12T13:20:22;10.30;99.90
39453;DHT22;25154;-33.684;151.102;2023-08-12T13:25:24;10.30;99.90
39453;DHT22;25154;-33.684;151.102;2023-08-12T13:30:27;10.10;99.90
39453;DHT22;25154;-33.684;151.102;2023-08-12T13:35:29;10.10;99.90
39453;DHT22;25154;-33.684;151.102;2023-08-12T13:40:31;10.10;99.90
39453;DHT22;25154;-33.684;151.102;2023-08-12T13:45:34;10.10;99.90
39453;DHT22;25154;-33.684;151.102;2023-08-12T13:50:36;10.00;99.90
39453;DHT22;25154;-33.684;151.102;2023-08-12T13:55:39;10.30;99.90
39453;DHT22;25154;-33.684;151.102;2023-08-12T14:00:41;10.50;99.90
39453;DHT22;25154;-33.684;151.102;2023-08-12T14:05:44;10.30;99.90
39453;DHT22;25154;-33.684;151.102;2023-08-12T14:10:49;10.30;99.90
39453;DHT22;25154;-33.684;151.102;2023-08-12T14:15:53;10.20;99.90
39453;DHT22;25154;-33.684;151.102;2023-08-12T14:20:56;10.20;99.90
39453;DHT22;25154;-33.684;151.102;2023-08-12T14:25:58;10.40;99.90
39453;DHT22;25154;-33.684;151.102;2023-08-12T14:31:00;10.20;99.90
39453;DHT22;25154;-33.684;151.102;2023-08-12T14:36:03;10.30;99.90
39453;DHT22;25154;-33.684;151.102;2023-08-12T14:41:05;10.20;99.90
39453;DHT22;25154;-33.684;151.102;2023-08-12T14:46:08;10.20;99.90
39453;DHT22;25154;-33.684;151.102;2023-08-12T14:51:10;10.30;99.90
39453;DHT22;25154;-33.684;151.102;2023-08-12T14:56:12;10.10;99.90
39453;DHT22;25154;-33.684;151.102;2023-08-12T15:01:15;10.10;99.90
39453;DHT22;25154;-33.684;151.102;2023-08-12T15:06:17;10.60;99.90
39453;DHT22;25154;-33.684;151.102;2023-08-12T15:11:20;10.60;99.90
39453;DHT22;25154;-33.684;151.102;2023-08-12T15:16:22;10.50;99.90
39453;DHT22;25154;-33.684;151.102;2023-08-12T15:21:24;10.50;99.90
39453;DHT22;25154;-33.684;151.102;2023-08-12T15:26:26;10.30;99.90
39453;DHT22;25154;-33.684;151.102;2023-08-12T15:31:29;10.60;99.90
39453;DHT22;25154;-33.684;151.102;2023-08-12T15:36:31;10.50;99.90
39453;DHT22;25154;-33.684;151.102;2023-08-12T15:41:42;10.40;99.90
39453;DHT22;25154;-33.684;151.102;2023-08-12T15:46:44;10.60;99.90
39453;DHT22;25154;-33.684;151.102;2023-08-12T15:51:47;10.70;99.90
39453;DHT22;25154;-33.684;151.102;2023-08-12T15:56:49;10.50;99.90
39453;DHT22;25154;-33.684;151.102;2023-08-12T16:01:51;10.70;99.90
39453;DHT22;25154;-33.684;151.102;2023-08-12T16:06:54;10.60;99.90
39453;DHT22;25154;-33.684;151.102;2023-08-12T16:11:56;10.60;99.90
39453;DHT22;25154;-33.684;151.102;2023-08-12T16:16:58;10.70;99.90
39453;DHT22;25154;-33.684;151.102;2023-08-12T16:22:01;10.70;99.90
39453;DHT22;25154;-33.684;151.102;2023-08-12T16:27:03;10.80;99.90
39453;DHT22;25154;-33.684;151.102;2023-08-12T16:32:07;10.80;99.90
39453;DHT22;25154;-33.684;151.102;2023-08-12T16:37:09;10.70;99.90
39453;DHT22;25154;-33.684;151.102;2023-08-12T16:42:11;10.80;99.90
39453;DHT22;25154;-33.684;151.102;2023-08-12T16:47:14;10.90;99.90
39453;DHT22;25154;-33.684;151.102;2023-08-12T16:52:16;10.70;99.90
39453;DHT22;25154;-33.684;151.102;2023-08-12T16:57:18;10.70;99.90
39453;DHT22;25154;-33.684;151.102;2023-08-12T17:02:21;10.60;99.90
39453;DHT22;25154;-33.684;151.102;2023-08-12T17:07:23;10.90;99.90
39453;DHT22;25154;-33.684;151.102;2023-08-12T17:12:25;10.90;99.90
39453;DHT22;25154;-33.684;151.102;2023-08-12T17:17:28;10.80;99.90
39453;DHT22;25154;-33.684;151.102;2023-08-12T17:22:30;10.80;99.90
39453;DHT22;25154;-33.684;151.102;2023-08-12T17:27:32;10.90;99.90
39453;DHT22;25154;-33.684;151.102;2023-08-12T17:32:35;10.90;99.90
39453;DHT22;25154;-33.684;151.102;2023-08-12T17:37:38;10.80;99.90
39453;DHT22;25154;-33.684;151.102;2023-08-12T17:42:40;10.80;99.90
39453;DHT22;25154;-33.684;151.102;2023-08-12T17:48:00;10.70;99.90
39453;DHT22;25154;-33.684;151.102;2023-08-12T17:53:05;10.90;99.90
39453;DHT22;25154;-33.684;151.102;2023-08-12T17:58:08;10.70;99.90
39453;DHT22;25154;-33.684;151.102;2023-08-12T18:08:13;10.90;99.90
39453;DHT22;25154;-33.684;151.102;2023-08-12T18:13:15;10.80;99.90
39453;DHT22;25154;-33.684;151.102;2023-08-12T18:18:18;11.00;99.90
39453;DHT22;25154;-33.684;151.102;2023-08-12T18:23:20;10.70;99.90
39453;DHT22;25154;-33.684;151.102;2023-08-12T18:28:23;10.90;99.90
39453;DHT22;25154;-33.684;151.102;2023-08-12T18:33:26;10.80;99.90
39453;DHT22;25154;-33.684;151.102;2023-08-12T18:38:29;10.50;99.90
39453;DHT22;25154;-33.684;151.102;2023-08-12T18:43:31;10.50;99.90
39453;DHT22;25154;-33.684;151.102;2023-08-12T18:48:33;10.70;99.90
39453;DHT22;25154;-33.684;151.102;2023-08-12T18:53:35;10.60;99.90
39453;DHT22;25154;-33.684;151.102;2023-08-12T18:58:38;10.60;99.90
39453;DHT22;25154;-33.684;151.102;2023-08-12T19:03:40;10.80;99.90
39453;DHT22;25154;-33.684;151.102;2023-08-12T19:08:42;10.80;99.90
39453;DHT22;25154;-33.684;151.102;2023-08-12T19:13:44;10.70;99.90
39453;DHT22;25154;-33.684;151.102;2023-08-12T19:18:48;10.60;99.90
39453;DHT22;25154;-33.684;151.102;2023-08-12T19:23:50;10.80;99.90
39453;DHT22;25154;-33.684;151.102;2023-08-12T19:28:53;10.80;99.90
39453;DHT22;25154;-33.684;151.102;2023-08-12T19:33:55;10.60;99.90
39453;DHT22;25154;-33.684;151.102;2023-08-12T19:38:58;10.40;99.90
39453;DHT22;25154;-33.684;151.102;2023-08-12T19:44:00;10.50;99.90
39453;DHT22;25154;-33.684;151.102;2023-08-12T19:49:02;10.60;99.90
39453;DHT22;25154;-33.684;151.102;2023-08-12T19:54:05;10.40;99.90
39453;DHT22;25154;-33.684;151.102;2023-08-12T19:59:07;10.60;99.90
39453;DHT22;25154;-33.684;151.102;2023-08-12T20:04:09;10.30;99.90
39453;DHT22;25154;-33.684;151.102;2023-08-12T20:09:11;10.30;99.90
39453;DHT22;25154;-33.684;151.102;2023-08-12T20:14:14;10.40;99.90
39453;DHT22;25154;-33.684;151.102;2023-08-12T20:19:17;10.40;99.90
39453;DHT22;25154;-33.684;151.102;2023-08-12T20:24:19;10.50;99.90
39453;DHT22;25154;-33.684;151.102;2023-08-12T20:29:22;10.20;99.90
39453;DHT22;25154;-33.684;151.102;2023-08-12T20:34:24;10.10;99.90
39453;DHT22;25154;-33.684;151.102;2023-08-12T20:39:26;10.30;99.90
39453;DHT22;25154;-33.684;151.102;2023-08-12T20:44:29;10.40;99.90
39453;DHT22;25154;-33.684;151.102;2023-08-12T20:49:32;10.20;99.90
39453;DHT22;25154;-33.684;151.102;2023-08-12T20:59:36;10.40;99.90
39453;DHT22;25154;-33.684;151.102;2023-08-12T21:04:38;10.30;99.90
39453;DHT22;25154;-33.684;151.102;2023-08-12T21:09:41;10.60;99.90
39453;DHT22;25154;-33.684;151.102;2023-08-12T21:14:44;10.70;99.90
39453;DHT22;25154;-33.684;151.102;2023-08-12T21:19:47;10.60;99.90
39453;DHT22;25154;-33.684;151.102;2023-08-12T21:24:49;10.60;99.90
39453;DHT22;25154;-33.684;151.102;2023-08-12T21:29:51;10.60;99.90
39453;DHT22;25154;-33.684;151.102;2023-08-12T21:34:54;10.60;99.90
39453;DHT22;25154;-33.684;151.102;2023-08-12T21:39:56;10.70;99.90
39453;DHT22;25154;-33.684;151.102;2023-08-12T21:44:58;10.70;99.90
39453;DHT22;25154;-33.684;151.102;2023-08-12T21:50:01;11.00;99.90
39453;DHT22;25154;-33.684;151.102;2023-08-12T21:55:03;11.20;99.90
39453;DHT22;25154;-33.684;151.102;2023-08-12T22:00:07;11.20;99.90
39453;DHT22;25154;-33.684;151.102;2023-08-12T22:05:13;11.10;99.90
39453;DHT22;25154;-33.684;151.102;2023-08-12T22:10:15;11.10;99.90
39453;DHT22;25154;-33.684;151.102;2023-08-12T22:15:19;11.30;99.90
39453;DHT22;25154;-33.684;151.102;2023-08-12T22:20:22;11.60;99.90
39453;DHT22;25154;-33.684;151.102;2023-08-12T22:30:27;11.70;99.90
39453;DHT22;25154;-33.684;151.102;2023-08-12T22:35:30;12.00;99.90
39453;DHT22;25154;-33.684;151.102;2023-08-12T22:40:33;12.40;99.90
39453;DHT22;25154;-33.684;151.102;2023-08-12T22:45:40;13.10;99.90
39453;DHT22;25154;-33.684;151.102;2023-08-12T22:50:43;13.10;99.90
39453;DHT22;25154;-33.684;151.102;2023-08-12T22:55:46;13.30;99.90
39453;DHT22;25154;-33.684;151.102;2023-08-12T23:00:49;13.30;99.90
39453;DHT22;25154;-33.684;151.102;2023-08-12T23:05:53;13.80;99.90
39453;DHT22;25154;-33.684;151.102;2023-08-12T23:10:55;13.80;99.90
39453;DHT22;25154;-33.684;151.102;2023-08-12T23:15:58;14.00;99.90
39453;DHT22;25154;-33.684;151.102;2023-08-12T23:21:00;14.00;99.90
39453;DHT22;25154;-33.684;151.102;2023-08-12T23:26:05;13.90;99.90
39453;DHT22;25154;-33.684;151.102;2023-08-12T23:31:07;14.10;99.90
39453;DHT22;25154;-33.684;151.102;2023-08-12T23:36:09;14.10;99.90
39453;DHT22;25154;-33.684;151.102;2023-08-12T23:41:12;14.20;99.90
39453;DHT22;25154;-33.684;151.102;2023-08-12T23:46:15;14.20;99.90
39453;DHT22;25154;-33.684;151.102;2023-08-12T23:51:18;14.30;99.90
39453;DHT22;25154;-33.684;151.102;2023-08-12T23:56:20;14.70;99.90
